createdAt,value
2016-08-25T00:00:13.779Z,16.74
2016-08-25T00:01:13.931Z,16.77
2016-08-25T00:02:23.568Z,16.77
2016-08-25T00:03:14.189Z,16.73
2016-08-25T00:04:27.106Z,16.77
2016-08-25T00:06:18.365Z,16.74
2016-08-25T00:07:23.639Z,16.72
2016-08-25T00:08:22.744Z,16.69
2016-08-25T00:09:19.871Z,16.65
2016-08-25T00:10:15.467Z,16.70
2016-08-25T00:11:23.052Z,16.64
2016-08-25T00:12:18.021Z,16.69
2016-08-25T00:13:23.501Z,16.65
2016-08-25T00:14:23.487Z,16.68
2016-08-25T00:15:23.459Z,16.64
2016-08-25T00:16:19.911Z,16.66
2016-08-25T00:17:18.259Z,16.59
2016-08-25T00:18:24.127Z,16.66
2016-08-25T00:19:17.959Z,16.58
2016-08-25T00:20:21.166Z,16.53
2016-08-25T00:21:13.440Z,16.57
2016-08-25T00:22:15.972Z,16.54
2016-08-25T00:23:17.441Z,16.55
2016-08-25T00:24:14.683Z,16.55
2016-08-25T00:25:18.523Z,16.49
2016-08-25T00:26:18.552Z,16.50
2016-08-25T00:27:17.181Z,16.49
2016-08-25T00:28:17.373Z,16.47
2016-08-25T00:31:13.753Z,16.46
2016-08-25T00:32:23.912Z,16.48
2016-08-25T00:33:16.834Z,16.39
2016-08-25T00:34:22.025Z,16.34
2016-08-25T00:35:20.206Z,16.35
2016-08-25T00:36:27.837Z,16.30
2016-08-25T00:38:23.477Z,16.31
2016-08-25T00:39:23.766Z,16.31
2016-08-25T00:40:22.235Z,16.31
2016-08-25T00:41:17.861Z,16.30
2016-08-25T00:43:23.413Z,16.29
2016-08-25T00:44:15.696Z,16.32
2016-08-25T00:45:38.972Z,16.32
2016-08-25T00:46:13.948Z,16.28
2016-08-25T00:47:21.123Z,16.30
2016-08-25T00:57:27.069Z,16.21
2016-08-25T00:58:23.777Z,16.20
2016-08-25T00:59:18.632Z,16.25
2016-08-25T01:00:16.143Z,16.24
2016-08-25T01:01:18.205Z,16.27
2016-08-25T01:02:25.575Z,16.24
2016-08-25T01:03:22.786Z,16.17
2016-08-25T01:04:15.936Z,16.09
2016-08-25T01:05:20.742Z,16.17
2016-08-25T01:06:23.017Z,16.24
2016-08-25T01:07:24.200Z,16.13
2016-08-25T01:08:13.709Z,16.12
2016-08-25T01:09:18.865Z,16.20
2016-08-25T01:13:22.776Z,16.10
2016-08-25T01:14:17.079Z,16.08
2016-08-25T01:15:17.310Z,16.00
2016-08-25T01:16:21.707Z,15.98
2016-08-25T01:17:21.003Z,15.97
2016-08-25T01:18:16.873Z,15.96
2016-08-25T01:19:23.219Z,16.02
2016-08-25T01:20:23.687Z,16.02
2016-08-25T01:21:21.712Z,16.03
2016-08-25T01:22:23.131Z,15.93
2016-08-25T01:23:20.463Z,15.91
2016-08-25T01:24:13.313Z,15.81
2016-08-25T01:25:15.434Z,15.85
2016-08-25T01:29:14.150Z,15.78
2016-08-25T01:30:20.005Z,15.85
2016-08-25T01:31:18.391Z,15.74
2016-08-25T01:33:23.402Z,15.74
2016-08-25T01:39:21.792Z,15.81
2016-08-25T01:42:23.495Z,15.63
2016-08-25T01:43:13.102Z,15.65
2016-08-25T01:44:15.125Z,15.66
2016-08-25T01:45:14.075Z,15.64
2016-08-25T01:50:22.514Z,15.69
2016-08-25T01:52:22.145Z,15.74
2016-08-25T01:53:21.997Z,15.81
2016-08-25T01:54:15.226Z,15.77
2016-08-25T01:56:14.621Z,15.87
2016-08-25T01:57:18.188Z,15.92
2016-08-25T01:58:12.571Z,15.94
2016-08-25T01:59:25.426Z,15.88
2016-08-25T02:05:13.258Z,15.78
2016-08-25T02:07:17.344Z,15.65
2016-08-25T02:11:44.802Z,15.56
2016-08-25T02:12:27.791Z,15.57
2016-08-25T02:13:24.873Z,15.57
2016-08-25T02:14:26.016Z,15.57
2016-08-25T02:15:25.513Z,15.58
2016-08-25T02:16:18.227Z,15.53
2016-08-25T02:17:21.075Z,15.54
2016-08-25T02:18:15.374Z,15.53
2016-08-25T02:19:41.734Z,15.59
2016-08-25T02:21:23.294Z,15.55
2016-08-25T02:22:15.403Z,15.56
2016-08-25T02:23:51.099Z,15.60
2016-08-25T02:25:25.213Z,15.56
2016-08-25T02:26:20.160Z,15.61
2016-08-25T02:27:22.773Z,15.63
2016-08-25T02:28:23.388Z,15.69
2016-08-25T02:29:16.179Z,15.72
2016-08-25T02:30:22.546Z,15.68
2016-08-25T02:38:12.868Z,15.66
2016-08-25T02:39:23.033Z,15.60
2016-08-25T02:40:11.994Z,15.58
2016-08-25T02:41:33.493Z,15.59
2016-08-25T02:42:14.803Z,15.54
2016-08-25T02:43:20.118Z,15.56
2016-08-25T02:44:18.500Z,15.60
2016-08-25T02:45:17.975Z,15.67
2016-08-25T02:46:23.262Z,15.66
2016-08-25T02:47:22.613Z,15.67
2016-08-25T02:48:14.193Z,15.56
2016-08-25T02:49:20.621Z,15.67
2016-08-25T02:50:17.035Z,15.57
2016-08-25T02:51:49.002Z,15.57
2016-08-25T02:52:19.785Z,15.57
2016-08-25T02:54:19.086Z,15.58
2016-08-25T02:55:22.522Z,15.58
2016-08-25T02:56:18.744Z,15.60
2016-08-25T02:57:22.912Z,15.62
2016-08-25T02:58:13.567Z,15.59
2016-08-25T02:59:27.068Z,15.58
2016-08-25T03:00:15.345Z,15.55
2016-08-25T03:01:12.914Z,15.53
2016-08-25T03:02:23.185Z,15.58
2016-08-25T03:03:17.276Z,15.51
2016-08-25T03:04:21.368Z,15.58
2016-08-25T03:05:21.456Z,15.63
2016-08-25T03:06:18.577Z,15.64
2016-08-25T03:07:18.329Z,15.59
2016-08-25T03:08:17.988Z,15.64
2016-08-25T03:10:12.198Z,15.56
2016-08-25T03:14:24.309Z,15.63
2016-08-25T03:15:18.068Z,15.62
2016-08-25T03:16:20.472Z,15.70
2016-08-25T03:19:17.890Z,15.65
2016-08-25T03:21:17.998Z,15.62
2016-08-25T03:22:19.728Z,15.64
2016-08-25T03:24:21.281Z,15.57
2016-08-25T03:25:18.575Z,15.59
2016-08-25T03:26:20.522Z,15.60
2016-08-25T03:27:18.879Z,15.58
2016-08-25T03:28:17.502Z,15.60
2016-08-25T03:29:22.281Z,15.54
2016-08-25T03:30:23.312Z,15.61
2016-08-25T03:31:23.575Z,15.61
2016-08-25T03:32:34.431Z,15.55
2016-08-25T03:33:18.242Z,15.49
2016-08-25T03:34:22.005Z,15.50
2016-08-25T03:35:18.917Z,15.57
2016-08-25T03:36:18.327Z,15.62
2016-08-25T03:37:23.335Z,15.62
2016-08-25T03:38:23.087Z,15.57
2016-08-25T03:39:21.568Z,15.58
2016-08-25T03:40:14.849Z,15.55
2016-08-25T03:42:14.237Z,15.46
2016-08-25T03:43:23.797Z,15.42
2016-08-25T03:45:33.683Z,15.40
2016-08-25T03:46:20.760Z,15.38
2016-08-25T03:47:18.888Z,15.37
2016-08-25T03:49:17.076Z,15.35
2016-08-25T03:51:27.589Z,15.21
2016-08-25T03:52:12.983Z,15.16
2016-08-25T03:53:21.177Z,15.21
2016-08-25T03:54:23.404Z,15.23
2016-08-25T03:55:27.691Z,15.20
2016-08-25T03:57:11.972Z,15.02
2016-08-25T03:58:21.945Z,15.12
2016-08-25T04:00:22.741Z,15.07
2016-08-25T04:01:22.614Z,15.09
2016-08-25T04:02:12.633Z,15.07
2016-08-25T04:03:14.165Z,15.09
2016-08-25T04:05:19.468Z,15.08
2016-08-25T04:06:22.785Z,15.04
2016-08-25T04:07:13.766Z,15.03
2016-08-25T04:08:17.317Z,15.03
2016-08-25T04:09:23.073Z,14.97
2016-08-25T04:12:18.922Z,14.84
2016-08-25T04:12:24.194Z,14.85
2016-08-25T04:13:19.353Z,14.86
2016-08-25T04:14:29.297Z,14.82
2016-08-25T04:16:22.893Z,14.76
2016-08-25T04:17:23.175Z,14.77
2016-08-25T04:18:20.381Z,14.81
2016-08-25T04:19:47.891Z,14.84
2016-08-25T04:20:21.805Z,14.86
2016-08-25T04:21:43.503Z,14.88
2016-08-25T04:22:12.328Z,14.83
2016-08-25T04:23:19.685Z,14.81
2016-08-25T04:24:23.570Z,14.79
2016-08-25T04:25:21.517Z,14.73
2016-08-25T04:26:22.291Z,14.72
2016-08-25T04:27:23.348Z,14.74
2016-08-25T04:29:12.926Z,14.76
2016-08-25T04:30:27.718Z,14.72
2016-08-25T04:31:14.647Z,14.74
2016-08-25T04:33:11.988Z,14.79
2016-08-25T04:34:23.148Z,14.69
2016-08-25T04:35:13.444Z,14.75
2016-08-25T04:36:21.808Z,14.77
2016-08-25T04:37:22.689Z,14.78
2016-08-25T04:38:12.679Z,14.84
2016-08-25T04:39:18.460Z,14.83
2016-08-25T04:40:17.247Z,14.67
2016-08-25T04:41:46.904Z,14.68
2016-08-25T04:42:22.930Z,14.70
2016-08-25T04:43:20.743Z,14.72
2016-08-25T04:45:13.063Z,14.87
2016-08-25T04:46:15.931Z,14.87
2016-08-25T04:48:13.028Z,14.86
2016-08-25T04:49:22.285Z,14.81
2016-08-25T04:50:22.638Z,14.69
2016-08-25T04:51:19.386Z,14.71
2016-08-25T04:52:18.735Z,14.64
2016-08-25T04:53:18.274Z,14.60
2016-08-25T04:54:22.267Z,14.64
2016-08-25T04:56:19.043Z,14.72
2016-08-25T04:57:23.754Z,14.68
2016-08-25T04:58:20.824Z,14.76
2016-08-25T04:59:22.761Z,14.84
2016-08-25T05:00:12.285Z,14.85
2016-08-25T05:04:17.102Z,14.86
2016-08-25T05:05:23.566Z,14.83
2016-08-25T05:06:20.831Z,14.94
2016-08-25T05:07:22.586Z,14.94
2016-08-25T05:08:21.858Z,14.89
2016-08-25T05:09:18.376Z,14.82
2016-08-25T05:10:18.099Z,14.88
2016-08-25T05:11:18.110Z,14.96
2016-08-25T05:12:22.781Z,14.92
2016-08-25T05:14:21.860Z,14.91
2016-08-25T05:15:17.312Z,14.95
2016-08-25T05:16:20.632Z,15.00
2016-08-25T05:17:15.173Z,15.05
2016-08-25T05:19:19.671Z,15.07
2016-08-25T05:21:11.922Z,15.06
2016-08-25T05:22:17.727Z,15.10
2016-08-25T05:23:15.071Z,15.10
2016-08-25T05:25:22.726Z,15.18
2016-08-25T05:26:23.061Z,15.15
2016-08-25T05:27:17.942Z,15.17
2016-08-25T05:28:22.853Z,15.24
2016-08-25T05:36:29.634Z,15.53
2016-08-25T05:37:27.936Z,15.57
2016-08-25T05:38:19.655Z,15.63
2016-08-25T05:40:21.658Z,15.65
2016-08-25T05:41:13.137Z,15.66
2016-08-25T05:42:13.584Z,15.74
2016-08-25T05:43:18.939Z,15.78
2016-08-25T05:44:23.150Z,15.78
2016-08-25T05:45:22.391Z,15.78
2016-08-25T05:46:17.146Z,15.83
2016-08-25T05:47:18.388Z,15.89
2016-08-25T05:49:20.179Z,15.99
2016-08-25T05:50:14.584Z,16.02
2016-08-25T05:51:17.188Z,16.01
2016-08-25T05:53:13.576Z,16.14
2016-08-25T05:56:15.203Z,16.23
2016-08-25T05:57:21.185Z,16.26
2016-08-25T06:00:22.913Z,16.34
2016-08-25T06:01:20.070Z,16.38
2016-08-25T06:02:12.619Z,16.40
2016-08-25T06:03:23.321Z,16.43
2016-08-25T06:04:14.599Z,16.47
2016-08-25T06:05:14.401Z,16.50
2016-08-25T06:06:20.022Z,16.57
2016-08-25T06:08:23.253Z,16.62
2016-08-25T06:09:23.468Z,16.62
2016-08-25T06:10:30.207Z,16.60
2016-08-25T06:12:17.540Z,16.65
2016-08-25T06:13:23.116Z,16.61
2016-08-25T06:14:16.678Z,16.62
2016-08-25T06:15:23.016Z,16.66
2016-08-25T06:16:14.809Z,16.66
2016-08-25T06:18:24.079Z,16.74
2016-08-25T06:19:17.758Z,16.74
2016-08-25T06:21:19.960Z,16.78
2016-08-25T06:22:23.765Z,16.84
2016-08-25T06:23:19.715Z,16.84
2016-08-25T06:24:23.549Z,16.87
2016-08-25T06:25:17.627Z,16.95
2016-08-25T06:26:18.386Z,16.97
2016-08-25T06:27:15.399Z,16.95
2016-08-25T06:28:38.591Z,16.93
2016-08-25T06:29:18.838Z,16.94
2016-08-25T06:30:17.998Z,16.97
2016-08-25T06:31:22.248Z,17.03
2016-08-25T06:32:23.429Z,17.10
2016-08-25T06:33:12.713Z,17.11
2016-08-25T06:42:47.355Z,17.34
2016-08-25T06:44:20.379Z,17.35
2016-08-25T06:45:14.833Z,17.39
2016-08-25T06:47:18.353Z,17.45
2016-08-25T06:48:24.642Z,17.43
2016-08-25T06:49:19.734Z,17.45
2016-08-25T06:50:14.110Z,17.46
2016-08-25T06:51:22.745Z,17.48
2016-08-25T06:52:21.150Z,17.53
2016-08-25T06:53:28.740Z,17.57
2016-08-25T06:55:19.086Z,17.61
2016-08-25T06:56:12.777Z,17.61
2016-08-25T06:57:27.043Z,17.62
2016-08-25T06:59:19.381Z,17.72
2016-08-25T07:01:22.772Z,17.81
2016-08-25T07:02:18.132Z,17.82
2016-08-25T07:03:15.899Z,17.81
2016-08-25T07:05:19.537Z,17.83
2016-08-25T07:06:21.528Z,17.83
2016-08-25T07:07:21.315Z,17.88
2016-08-25T07:08:13.225Z,17.94
2016-08-25T07:09:21.471Z,18.00
2016-08-25T07:10:19.335Z,18.03
2016-08-25T07:11:14.151Z,18.04
2016-08-25T07:12:21.797Z,18.11
2016-08-25T07:13:14.036Z,18.15
2016-08-25T07:14:22.496Z,18.17
2016-08-25T07:16:11.890Z,18.18
2016-08-25T07:17:23.721Z,18.21
2016-08-25T07:18:12.587Z,18.22
2016-08-25T07:19:21.067Z,18.29
2016-08-25T07:20:21.321Z,18.32
2016-08-25T07:22:23.041Z,18.35
2016-08-25T07:23:18.090Z,18.35
2016-08-25T07:24:15.675Z,18.34
2016-08-25T07:25:21.892Z,18.35
2016-08-25T07:26:13.174Z,18.37
2016-08-25T07:27:19.967Z,18.41
2016-08-25T07:28:15.364Z,18.42
2016-08-25T07:29:15.855Z,18.45
2016-08-25T07:30:12.005Z,18.48
2016-08-25T07:31:17.698Z,18.56
2016-08-25T07:32:14.547Z,18.57
2016-08-25T07:33:22.333Z,18.59
2016-08-25T07:34:15.075Z,18.63
2016-08-25T07:35:22.863Z,18.67
2016-08-25T07:36:12.551Z,18.70
2016-08-25T07:37:13.764Z,18.75
2016-08-25T07:38:18.985Z,18.78
2016-08-25T07:39:21.226Z,18.79
2016-08-25T07:40:21.040Z,18.76
2016-08-25T07:41:17.898Z,18.79
2016-08-25T07:42:21.713Z,18.82
2016-08-25T07:43:19.485Z,18.83
2016-08-25T07:44:23.605Z,18.87
2016-08-25T07:45:18.716Z,18.92
2016-08-25T07:46:24.560Z,18.99
2016-08-25T07:47:18.123Z,18.97
2016-08-25T07:48:17.299Z,18.98
2016-08-25T07:49:12.741Z,19.03
2016-08-25T07:50:21.093Z,19.05
2016-08-25T07:51:17.970Z,19.06
2016-08-25T07:53:21.584Z,19.09
2016-08-25T07:54:23.791Z,19.13
2016-08-25T07:55:21.602Z,19.16
2016-08-25T07:56:13.251Z,19.19
2016-08-25T07:57:22.686Z,19.23
2016-08-25T07:58:22.136Z,19.26
2016-08-25T07:59:23.374Z,19.27
2016-08-25T08:00:18.654Z,19.28
2016-08-25T08:01:17.785Z,19.29
2016-08-25T08:02:21.032Z,19.34
2016-08-25T08:03:23.566Z,19.38
2016-08-25T08:04:23.205Z,19.34
2016-08-25T08:05:12.614Z,19.34
2016-08-25T08:07:20.560Z,19.43
2016-08-25T08:08:24.390Z,19.46
2016-08-25T08:09:17.191Z,19.48
2016-08-25T08:10:19.482Z,19.51
2016-08-25T08:11:12.637Z,19.54
2016-08-25T08:12:22.422Z,19.58
2016-08-25T08:13:17.686Z,19.63
2016-08-25T08:14:16.998Z,19.64
2016-08-25T08:15:24.250Z,19.65
2016-08-25T08:16:22.514Z,19.62
2016-08-25T08:17:14.300Z,19.64
2016-08-25T08:18:16.468Z,19.67
2016-08-25T08:19:22.609Z,19.77
2016-08-25T08:20:21.994Z,19.76
2016-08-25T08:21:16.393Z,19.80
2016-08-25T08:22:20.708Z,19.77
2016-08-25T08:23:20.082Z,19.86
2016-08-25T08:24:19.977Z,19.85
2016-08-25T08:25:21.568Z,19.83
2016-08-25T08:26:14.394Z,19.86
2016-08-25T08:27:13.553Z,19.87
2016-08-25T08:28:24.321Z,19.94
2016-08-25T08:29:23.135Z,19.99
2016-08-25T08:30:18.456Z,20.01
2016-08-25T08:32:18.336Z,20.00
2016-08-25T08:33:23.575Z,20.01
2016-08-25T08:34:17.082Z,20.00
2016-08-25T08:35:18.736Z,20.03
2016-08-25T08:36:22.896Z,20.09
2016-08-25T08:38:17.314Z,20.04
2016-08-25T08:39:23.495Z,20.07
2016-08-25T08:40:22.278Z,20.12
2016-08-25T08:42:17.453Z,20.19
2016-08-25T08:43:23.704Z,20.29
2016-08-25T08:44:20.795Z,20.29
2016-08-25T08:45:15.711Z,20.27
2016-08-25T08:46:23.143Z,20.29
2016-08-25T08:47:11.949Z,20.32
2016-08-25T08:48:13.375Z,20.33
2016-08-25T08:49:20.090Z,20.31
2016-08-25T08:50:15.096Z,20.33
2016-08-25T08:51:12.869Z,20.30
2016-08-25T08:52:16.263Z,20.30
2016-08-25T08:53:12.861Z,20.36
2016-08-25T08:54:25.026Z,20.43
2016-08-25T08:55:12.255Z,20.46
2016-08-25T08:56:12.506Z,20.46
2016-08-25T08:57:17.404Z,20.48
2016-08-25T08:58:23.049Z,20.51
2016-08-25T08:59:24.097Z,20.53
2016-08-25T09:00:20.264Z,20.53
2016-08-25T09:01:20.713Z,20.53
2016-08-25T09:02:14.288Z,20.52
2016-08-25T09:03:21.414Z,20.50
2016-08-25T09:05:21.804Z,20.50
2016-08-25T09:06:12.018Z,20.51
2016-08-25T09:07:12.870Z,20.58
2016-08-25T09:08:19.093Z,20.61
2016-08-25T09:09:18.447Z,20.65
2016-08-25T09:10:23.124Z,20.71
2016-08-25T09:11:15.901Z,20.72
2016-08-25T09:13:12.585Z,20.72
2016-08-25T09:14:17.645Z,20.75
2016-08-25T09:15:23.237Z,20.78
2016-08-25T09:16:13.423Z,20.76
2016-08-25T09:17:24.544Z,20.79
2016-08-25T09:18:16.156Z,20.81
2016-08-25T09:20:17.594Z,20.93
2016-08-25T09:21:22.007Z,21.00
2016-08-25T09:22:23.789Z,21.01
2016-08-25T09:23:17.574Z,21.06
2016-08-25T09:24:23.311Z,21.04
2016-08-25T09:25:23.663Z,21.09
2016-08-25T09:26:13.260Z,21.09
2016-08-25T09:27:17.045Z,21.11
2016-08-25T09:28:16.493Z,21.16
2016-08-25T09:29:11.914Z,21.13
2016-08-25T09:30:21.236Z,21.11
2016-08-25T09:31:19.190Z,21.11
2016-08-25T09:32:21.685Z,21.13
2016-08-25T09:34:23.404Z,21.13
2016-08-25T09:35:21.089Z,21.12
2016-08-25T09:36:20.982Z,21.18
2016-08-25T09:37:15.776Z,21.24
2016-08-25T09:38:16.538Z,21.29
2016-08-25T09:39:20.741Z,21.30
2016-08-25T09:40:13.433Z,21.34
2016-08-25T09:41:12.841Z,21.44
2016-08-25T09:42:16.947Z,21.45
2016-08-25T09:43:22.745Z,21.49
2016-08-25T09:44:12.244Z,21.51
2016-08-25T09:45:19.761Z,21.54
2016-08-25T09:46:24.253Z,21.52
2016-08-25T09:47:14.905Z,21.56
2016-08-25T09:48:21.221Z,21.62
2016-08-25T09:49:15.416Z,21.62
2016-08-25T09:50:21.633Z,21.63
2016-08-25T09:51:12.008Z,21.67
2016-08-25T09:52:18.655Z,21.74
2016-08-25T09:53:12.727Z,21.71
2016-08-25T09:54:21.001Z,21.71
2016-08-25T09:56:12.424Z,21.70
2016-08-25T09:58:19.805Z,21.74
2016-08-25T10:00:34.944Z,21.85
2016-08-25T10:02:12.317Z,21.89
2016-08-25T10:03:17.727Z,21.89
2016-08-25T10:05:24.064Z,21.94
2016-08-25T10:07:12.198Z,22.01
2016-08-25T10:08:12.914Z,22.07
2016-08-25T10:10:23.398Z,22.11
2016-08-25T10:12:17.844Z,22.17
2016-08-25T10:13:12.606Z,22.15
2016-08-25T10:14:22.826Z,22.13
2016-08-25T10:15:12.120Z,22.21
2016-08-25T10:16:23.258Z,22.24
2016-08-25T10:17:22.800Z,22.15
2016-08-25T10:18:17.667Z,22.13
2016-08-25T10:21:17.944Z,22.16
2016-08-25T10:22:12.752Z,22.13
2016-08-25T10:23:13.244Z,22.19
2016-08-25T10:24:23.393Z,22.29
2016-08-25T10:25:22.614Z,22.28
2016-08-25T10:26:17.173Z,22.25
2016-08-25T10:27:14.136Z,22.25
2016-08-25T10:28:17.799Z,22.38
2016-08-25T10:29:23.155Z,22.39
2016-08-25T10:30:14.894Z,22.41
2016-08-25T10:32:14.313Z,22.47
2016-08-25T10:33:21.885Z,22.46
2016-08-25T10:34:12.034Z,22.55
2016-08-25T10:35:41.612Z,22.69
2016-08-25T10:36:18.555Z,22.74
2016-08-25T10:37:19.007Z,22.70
2016-08-25T10:38:25.896Z,22.67
2016-08-25T10:39:13.856Z,22.66
2016-08-25T10:40:28.577Z,22.59
2016-08-25T10:41:21.542Z,22.62
2016-08-25T10:42:11.859Z,22.63
2016-08-25T10:43:12.732Z,22.72
2016-08-25T10:44:12.285Z,22.76
2016-08-25T10:45:17.118Z,22.82
2016-08-25T10:46:23.969Z,22.88
2016-08-25T10:47:10.231Z,22.91
2016-08-25T10:49:22.849Z,22.83
2016-08-25T10:51:11.703Z,22.87
2016-08-25T10:52:13.512Z,22.84
2016-08-25T10:53:14.471Z,22.92
2016-08-25T10:54:23.153Z,22.89
2016-08-25T10:55:19.152Z,22.86
2016-08-25T10:56:20.150Z,22.93
2016-08-25T10:57:11.709Z,23.03
2016-08-25T10:58:16.029Z,23.02
2016-08-25T10:59:17.984Z,22.98
2016-08-25T11:00:14.474Z,23.02
2016-08-25T11:01:24.250Z,23.04
2016-08-25T11:02:18.404Z,23.11
2016-08-25T11:03:15.091Z,23.13
2016-08-25T11:04:22.772Z,23.14
2016-08-25T11:05:14.230Z,23.17
2016-08-25T11:08:29.072Z,23.31
2016-08-25T11:09:11.684Z,23.33
2016-08-25T11:10:12.679Z,23.42
2016-08-25T11:11:12.454Z,23.50
2016-08-25T11:12:23.277Z,23.52
2016-08-25T11:13:29.433Z,23.52
2016-08-25T11:14:30.724Z,23.54
2016-08-25T11:15:14.593Z,23.66
2016-08-25T11:24:25.731Z,23.71
2016-08-25T11:25:13.935Z,23.70
2016-08-25T11:27:15.831Z,23.76
2016-08-25T11:28:13.647Z,23.75
2016-08-25T11:29:27.202Z,23.86
2016-08-25T11:30:24.651Z,23.83
2016-08-25T11:31:21.879Z,23.94
2016-08-25T11:32:17.608Z,23.91
2016-08-25T11:33:12.436Z,23.93
2016-08-25T11:35:09.509Z,23.88
2016-08-25T11:37:23.200Z,23.91
2016-08-25T11:38:14.658Z,23.93
2016-08-25T11:40:19.649Z,23.92
2016-08-25T11:41:19.755Z,23.96
2016-08-25T11:43:14.350Z,23.99
2016-08-25T11:45:14.104Z,24.12
2016-08-25T11:48:11.563Z,24.11
2016-08-25T11:52:14.529Z,24.13
2016-08-25T11:53:19.379Z,24.14
2016-08-25T11:54:13.524Z,24.14
2016-08-25T12:02:16.519Z,24.47
2016-08-25T12:04:13.695Z,24.47
2016-08-25T12:07:17.552Z,24.50
2016-08-25T12:10:20.660Z,24.63
2016-08-25T12:11:14.332Z,24.62
2016-08-25T12:14:18.059Z,24.59
2016-08-25T12:15:28.349Z,24.65
2016-08-25T12:17:14.534Z,24.79
2016-08-25T12:19:14.622Z,24.83
2016-08-25T12:20:17.982Z,24.75
2016-08-25T12:21:22.457Z,24.78
2016-08-25T12:22:12.948Z,24.77
2016-08-25T12:23:24.006Z,24.85
2016-08-25T12:24:22.249Z,24.91
2016-08-25T12:25:18.388Z,24.98
2016-08-25T12:26:14.976Z,24.89
2016-08-25T12:27:20.926Z,25.02
2016-08-25T12:28:14.823Z,25.01
2016-08-25T12:29:22.193Z,25.00
2016-08-25T12:30:21.059Z,24.99
2016-08-25T12:31:12.242Z,25.04
2016-08-25T12:33:21.611Z,25.16
2016-08-25T12:34:20.889Z,25.18
2016-08-25T12:35:18.203Z,25.21
2016-08-25T12:36:23.314Z,25.20
2016-08-25T12:37:24.508Z,25.17
2016-08-25T12:38:22.426Z,25.21
2016-08-25T12:39:19.729Z,25.21
2016-08-25T12:40:28.513Z,25.24
2016-08-25T12:41:12.731Z,25.34
2016-08-25T12:42:15.741Z,25.35
2016-08-25T12:43:21.588Z,25.38
2016-08-25T12:44:16.940Z,25.39
2016-08-25T12:45:22.910Z,25.40
2016-08-25T12:46:23.332Z,25.42
2016-08-25T12:47:16.243Z,25.44
2016-08-25T12:48:25.114Z,25.50
2016-08-25T12:49:21.370Z,25.50
2016-08-25T12:50:22.092Z,25.59
2016-08-25T12:51:17.253Z,25.61
2016-08-25T12:52:23.620Z,25.64
2016-08-25T12:53:19.728Z,25.70
2016-08-25T12:54:17.838Z,25.71
2016-08-25T12:55:23.740Z,25.74
2016-08-25T12:56:15.243Z,25.76
2016-08-25T12:57:13.258Z,25.87
2016-08-25T12:58:28.509Z,25.91
2016-08-25T13:01:22.072Z,26.09
2016-08-25T13:02:41.859Z,26.14
2016-08-25T13:03:24.610Z,26.19
2016-08-25T13:04:21.554Z,26.27
2016-08-25T13:05:27.846Z,26.33
2016-08-25T13:06:14.700Z,26.35
2016-08-25T13:07:14.089Z,26.39
2016-08-25T13:08:15.768Z,26.45
2016-08-25T13:09:12.958Z,26.53
2016-08-25T13:10:23.004Z,26.60
2016-08-25T13:11:14.733Z,26.64
2016-08-25T13:12:12.965Z,26.70
2016-08-25T13:13:26.150Z,26.79
2016-08-25T13:14:20.205Z,26.84
2016-08-25T13:15:12.541Z,26.93
2016-08-25T13:16:26.563Z,27.02
2016-08-25T13:17:22.086Z,27.10
2016-08-25T13:18:13.217Z,27.16
2016-08-25T13:19:21.045Z,27.20
2016-08-25T13:20:15.821Z,27.26
2016-08-25T13:21:17.158Z,27.22
2016-08-25T13:22:20.781Z,27.34
2016-08-25T13:23:18.041Z,27.39
2016-08-25T13:24:20.959Z,27.38
2016-08-25T13:25:21.309Z,27.41
2016-08-25T13:26:21.054Z,27.41
2016-08-25T13:27:17.454Z,27.42
2016-08-25T13:28:22.184Z,27.38
2016-08-25T13:29:14.950Z,27.34
2016-08-25T13:30:12.889Z,27.35
2016-08-25T13:31:23.183Z,27.32
2016-08-25T13:32:14.673Z,27.32
2016-08-25T13:33:16.462Z,27.31
2016-08-25T13:34:24.795Z,27.32
2016-08-25T13:35:19.050Z,27.26
2016-08-25T13:36:21.432Z,27.16
2016-08-25T13:38:12.850Z,27.04
2016-08-25T13:39:18.592Z,26.93
2016-08-25T13:44:28.533Z,26.74
2016-08-25T13:45:12.449Z,26.70
2016-08-25T13:46:21.117Z,26.66
2016-08-25T13:47:13.246Z,26.62
2016-08-25T13:48:21.695Z,26.60
2016-08-25T13:49:13.978Z,26.59
2016-08-25T13:50:21.643Z,26.56
2016-08-25T13:51:14.829Z,26.55
2016-08-25T13:52:14.736Z,26.61
2016-08-25T13:53:22.386Z,26.59
2016-08-25T13:54:27.539Z,26.61
2016-08-25T13:55:17.438Z,26.69
2016-08-25T13:56:15.545Z,26.68
2016-08-25T13:57:12.891Z,26.63
2016-08-25T13:58:13.928Z,26.64
2016-08-25T13:59:17.942Z,26.64
2016-08-25T14:00:18.692Z,26.64
2016-08-25T14:01:16.540Z,26.65
2016-08-25T14:02:22.513Z,26.70
2016-08-25T14:03:22.669Z,26.69
2016-08-25T14:04:21.203Z,26.68
2016-08-25T14:05:16.623Z,26.66
2016-08-25T14:06:17.711Z,26.58
2016-08-25T14:07:16.811Z,26.57
2016-08-25T14:09:12.917Z,26.39
2016-08-25T14:10:38.156Z,26.36
2016-08-25T14:11:15.143Z,26.35
2016-08-25T14:12:23.301Z,26.32
2016-08-25T14:13:11.815Z,26.29
2016-08-25T14:14:13.195Z,26.24
2016-08-25T14:16:11.413Z,26.15
2016-08-25T14:17:12.914Z,26.19
2016-08-25T14:18:20.444Z,26.12
2016-08-25T14:19:11.695Z,26.12
2016-08-25T14:20:12.100Z,26.07
2016-08-25T14:21:17.407Z,26.08
2016-08-25T14:22:20.167Z,26.08
2016-08-25T14:23:11.887Z,26.06
2016-08-25T14:24:11.948Z,26.03
2016-08-25T14:25:12.496Z,26.01
2016-08-25T14:26:18.530Z,26.01
2016-08-25T14:27:21.507Z,25.99
2016-08-25T14:28:23.245Z,25.94
2016-08-25T14:29:13.981Z,25.95
2016-08-25T14:30:12.376Z,25.96
2016-08-25T14:31:13.830Z,25.90
2016-08-25T14:33:13.655Z,25.89
2016-08-25T14:34:13.665Z,25.88
2016-08-25T14:35:26.803Z,25.83
2016-08-25T14:36:24.288Z,25.87
2016-08-25T14:37:10.528Z,25.89
2016-08-25T14:38:14.621Z,25.86
2016-08-25T14:40:15.190Z,25.88
2016-08-25T14:41:14.442Z,25.84
2016-08-25T14:42:14.469Z,25.79
2016-08-25T14:43:21.597Z,25.77
2016-08-25T14:44:16.701Z,25.75
2016-08-25T14:45:21.165Z,25.73
2016-08-25T14:46:23.436Z,25.72
2016-08-25T14:47:19.264Z,25.72
2016-08-25T14:48:14.328Z,25.77
2016-08-25T14:49:13.642Z,25.75
2016-08-25T14:50:14.339Z,25.79
2016-08-25T14:51:18.564Z,25.81
2016-08-25T14:52:14.514Z,25.84
2016-08-25T14:53:23.825Z,25.81
2016-08-25T14:54:14.139Z,25.77
2016-08-25T14:55:12.838Z,25.76
2016-08-25T14:57:16.922Z,25.75
2016-08-25T14:58:16.133Z,25.74
2016-08-25T14:59:25.442Z,25.75
2016-08-25T15:02:12.018Z,25.77
2016-08-25T15:03:14.806Z,25.80
2016-08-25T15:04:14.519Z,25.78
2016-08-25T15:05:15.060Z,25.80
2016-08-25T15:06:18.331Z,25.83
2016-08-25T15:07:12.978Z,25.83
2016-08-25T15:08:14.646Z,25.87
2016-08-25T15:09:14.800Z,25.91
2016-08-25T15:10:18.837Z,25.98
2016-08-25T15:11:24.014Z,25.99
2016-08-25T15:12:23.399Z,26.00
2016-08-25T15:14:28.167Z,25.99
2016-08-25T15:16:19.762Z,25.94
2016-08-25T15:17:23.347Z,25.90
2016-08-25T15:19:16.255Z,25.90
2016-08-25T15:21:15.803Z,25.89
2016-08-25T15:22:12.721Z,25.86
2016-08-25T15:23:20.265Z,25.89
2016-08-25T15:25:18.627Z,25.85
2016-08-25T15:26:13.605Z,25.83
2016-08-25T15:27:19.421Z,25.79
2016-08-25T15:29:19.077Z,25.76
2016-08-25T15:30:13.215Z,25.76
2016-08-25T15:31:14.715Z,25.74
2016-08-25T15:32:26.567Z,25.75
2016-08-25T15:33:17.298Z,25.80
2016-08-25T15:34:21.194Z,25.81
2016-08-25T15:35:23.170Z,25.81
2016-08-25T15:36:19.805Z,25.88
2016-08-25T15:39:27.957Z,26.11
2016-08-25T15:40:15.830Z,26.22
2016-08-25T15:41:17.537Z,26.46
2016-08-25T15:42:21.758Z,26.69
2016-08-25T15:43:16.309Z,26.97
2016-08-25T15:44:16.102Z,27.20
2016-08-25T15:45:12.209Z,27.36
2016-08-25T15:46:18.296Z,27.70
2016-08-25T15:47:14.238Z,27.98
2016-08-25T15:48:11.660Z,28.30
2016-08-25T15:49:12.672Z,28.78
2016-08-25T15:50:12.563Z,29.00
2016-08-25T15:51:14.259Z,29.44
2016-08-25T15:52:12.321Z,29.79
2016-08-25T15:53:15.539Z,29.78
2016-08-25T15:54:12.786Z,29.87
2016-08-25T15:55:17.496Z,29.86
2016-08-25T15:56:12.634Z,30.17
2016-08-25T15:57:17.649Z,30.21
2016-08-25T15:58:14.074Z,30.27
2016-08-25T15:59:11.549Z,30.51
2016-08-25T16:00:12.033Z,30.39
2016-08-25T16:01:11.696Z,30.47
2016-08-25T16:02:13.907Z,30.34
2016-08-25T16:03:15.214Z,30.43
2016-08-25T16:05:12.494Z,30.41
2016-08-25T16:06:14.268Z,30.79
2016-08-25T16:07:18.222Z,30.76
2016-08-25T16:08:13.923Z,30.44
2016-08-25T16:09:12.762Z,30.61
2016-08-25T16:10:20.004Z,30.57
2016-08-25T16:11:13.592Z,30.45